Dryfork, West Virginia
Current Conditions -  °F | °C
As of 5:15 PM on Sunday 21 Dec 2014 (Local Time) from KW99 Reporting Station
Clear Clear  
Wind Chill: 35°   Ceiling: Unl
Heat Index: 35°   Visibility: 10mi
Dew Point: 27°   Wind: 3mph
Humidity: 71%   Direction: 300°WNW
Pressure: 30.24"   Gusts: NA
Location:  38.97°N, 79.5°W
Report Text: KW99 212215Z AUTO 30003KT 10SM CLR 02/M03 A3024 RMK AO2 T00191028
Loading
Personal Weather Stations






























Interactive Weather Map New forecast layout! Learn more

10-Day Weather Forecast

Advertisements
Track Severe Weather on mobile